createdAt,value
2019-03-16T00:00:13.682Z,0.40
2019-03-16T00:02:42.502Z,1.27
2019-03-16T00:05:11.249Z,1.67
2019-03-16T00:07:39.971Z,1.90
2019-03-16T00:10:08.715Z,1.10
2019-03-16T00:12:37.510Z,1.07
2019-03-16T00:15:07.545Z,0.97
2019-03-16T00:17:36.296Z,1.17
2019-03-16T00:20:12.057Z,0.80
2019-03-16T00:22:40.913Z,1.33
2019-03-16T00:25:10.436Z,0.80
2019-03-16T00:27:39.226Z,1.67
2019-03-16T00:30:14.970Z,0.67
2019-03-16T00:32:43.695Z,1.03
2019-03-16T00:35:12.621Z,0.93
2019-03-16T00:37:41.408Z,1.07
2019-03-16T00:40:12.032Z,1.30
2019-03-16T00:42:40.745Z,0.90
2019-03-16T00:45:11.404Z,1.13
2019-03-16T00:47:40.183Z,1.30
2019-03-16T00:50:12.686Z,1.80
2019-03-16T00:52:41.468Z,1.67
2019-03-16T00:55:11.057Z,0.70
2019-03-16T00:57:40.073Z,1.10
2019-03-16T01:00:16.362Z,0.93
2019-03-16T01:02:45.177Z,1.17
2019-03-16T01:05:15.033Z,0.83
2019-03-16T01:07:43.782Z,1.93
2019-03-16T01:10:12.508Z,1.10
2019-03-16T01:12:41.332Z,0.70
2019-03-16T01:15:13.434Z,0.60
2019-03-16T01:17:42.284Z,0.77
2019-03-16T01:20:12.661Z,0.63
2019-03-16T01:22:41.381Z,0.77
2019-03-16T01:25:12.869Z,0.73
2019-03-16T01:27:41.614Z,1.00
2019-03-16T01:30:15.385Z,0.93
2019-03-16T01:32:44.109Z,0.67
2019-03-16T01:35:13.047Z,0.77
2019-03-16T01:37:41.841Z,0.70
2019-03-16T01:40:11.412Z,1.07
2019-03-16T01:42:40.125Z,0.57
2019-03-16T01:45:10.047Z,1.00
2019-03-16T01:47:38.772Z,0.87
2019-03-16T01:50:09.520Z,0.83
2019-03-16T01:52:38.321Z,1.20
2019-03-16T01:55:08.691Z,1.07
2019-03-16T01:57:37.453Z,0.93
2019-03-16T02:00:09.148Z,0.90
2019-03-16T02:02:37.881Z,0.90
2019-03-16T02:05:07.532Z,0.70
2019-03-16T02:07:36.260Z,1.77
2019-03-16T02:10:05.885Z,1.53
2019-03-16T02:12:34.661Z,0.90
2019-03-16T02:15:03.629Z,1.10
2019-03-16T02:17:32.347Z,0.70
2019-03-16T02:20:01.134Z,0.77
2019-03-16T02:22:29.932Z,0.90
2019-03-16T02:24:58.713Z,1.00
2019-03-16T02:27:27.431Z,0.80
2019-03-16T02:29:56.197Z,1.03
2019-03-16T02:32:24.974Z,0.60
2019-03-16T02:34:53.697Z,1.30
2019-03-16T02:37:22.442Z,0.70
2019-03-16T02:39:51.194Z,1.37
2019-03-16T02:42:19.917Z,0.90
2019-03-16T02:44:48.673Z,0.90
2019-03-16T02:47:17.399Z,0.60
2019-03-16T02:49:46.120Z,0.67
2019-03-16T02:52:14.865Z,0.67
2019-03-16T02:54:43.611Z,1.20
2019-03-16T02:57:12.329Z,0.63
2019-03-16T02:59:41.114Z,1.10
2019-03-16T03:02:09.844Z,1.17
2019-03-16T03:04:38.561Z,0.60
2019-03-16T03:07:07.314Z,0.80
2019-03-16T03:09:36.037Z,1.10
2019-03-16T03:12:04.826Z,0.93
2019-03-16T03:14:33.645Z,0.60
2019-03-16T03:17:02.367Z,0.70
2019-03-16T03:19:31.086Z,0.50
2019-03-16T03:21:59.834Z,0.60
2019-03-16T03:24:28.568Z,0.80
2019-03-16T03:26:57.347Z,0.57
2019-03-16T03:29:26.160Z,0.40
2019-03-16T03:31:54.881Z,0.77
2019-03-16T03:34:23.711Z,0.70
2019-03-16T03:36:52.461Z,0.60
2019-03-16T03:39:21.286Z,0.50
2019-03-16T03:41:50.098Z,0.90
2019-03-16T03:44:18.822Z,0.70
2019-03-16T03:46:47.542Z,0.50
2019-03-16T03:49:16.309Z,0.70
2019-03-16T03:51:45.018Z,0.57
2019-03-16T03:54:13.844Z,1.03
2019-03-16T03:56:42.585Z,1.43
2019-03-16T03:59:11.312Z,1.20
2019-03-16T04:01:40.083Z,0.50
2019-03-16T04:04:15.508Z,0.60
2019-03-16T04:06:39.209Z,0.90
2019-03-16T04:09:08.621Z,0.47
2019-03-16T04:11:37.374Z,0.60
2019-03-16T04:14:06.093Z,0.60
2019-03-16T04:16:34.807Z,0.70
2019-03-16T04:19:03.578Z,0.63
2019-03-16T04:21:32.282Z,0.43
2019-03-16T04:24:01.094Z,0.40
2019-03-16T04:26:29.841Z,0.60
2019-03-16T04:28:58.568Z,0.43
2019-03-16T04:31:27.286Z,0.80
2019-03-16T04:33:56.049Z,0.77
2019-03-16T04:36:24.774Z,0.67
2019-03-16T04:38:53.498Z,0.47
2019-03-16T04:41:22.246Z,0.37
2019-03-16T04:43:50.998Z,0.60
2019-03-16T04:46:19.713Z,0.63
2019-03-16T04:48:48.470Z,1.10
2019-03-16T04:51:17.190Z,0.60
2019-03-16T04:53:45.902Z,1.17
2019-03-16T04:56:14.758Z,0.60
2019-03-16T04:58:43.509Z,0.50
2019-03-16T05:01:12.298Z,0.40
2019-03-16T05:03:41.052Z,0.60
2019-03-16T05:06:09.769Z,0.77
2019-03-16T05:08:38.690Z,0.73
2019-03-16T05:11:07.439Z,0.40
2019-03-16T05:13:36.164Z,0.53
2019-03-16T05:16:04.885Z,0.97
2019-03-16T05:18:33.718Z,0.80
2019-03-16T05:21:02.442Z,0.60
2019-03-16T05:23:31.165Z,0.70
2019-03-16T05:25:59.914Z,1.00
2019-03-16T05:28:28.654Z,0.57
2019-03-16T05:30:57.709Z,1.30
2019-03-16T05:33:26.477Z,0.50
2019-03-16T05:35:55.201Z,0.60
2019-03-16T05:38:23.929Z,0.70
2019-03-16T05:40:52.762Z,0.80
2019-03-16T05:43:21.481Z,1.13
2019-03-16T05:45:50.287Z,0.83
2019-03-16T05:48:19.045Z,0.60
2019-03-16T05:50:47.765Z,0.87
2019-03-16T05:53:16.535Z,0.90
2019-03-16T05:55:45.289Z,1.13
2019-03-16T05:58:14.009Z,0.73
2019-03-16T06:00:42.722Z,0.90
2019-03-16T06:03:11.537Z,0.80
2019-03-16T06:05:40.329Z,0.87
2019-03-16T06:08:09.053Z,0.70
2019-03-16T06:10:38.853Z,0.67
2019-03-16T06:13:07.581Z,1.10
2019-03-16T06:15:36.296Z,1.10
2019-03-16T06:18:05.082Z,0.80
2019-03-16T06:20:33.801Z,1.20
2019-03-16T06:23:02.527Z,0.73
2019-03-16T06:25:31.273Z,1.33
2019-03-16T06:27:59.990Z,0.80
2019-03-16T06:30:28.761Z,0.70
2019-03-16T06:32:57.513Z,0.73
2019-03-16T06:35:29.243Z,0.93
2019-03-16T06:37:56.610Z,1.00
2019-03-16T06:40:25.377Z,1.27
2019-03-16T06:42:54.102Z,0.97
2019-03-16T06:45:22.929Z,0.63
2019-03-16T06:47:54.613Z,1.10
2019-03-16T06:50:22.077Z,0.73
2019-03-16T06:52:50.794Z,0.80
2019-03-16T06:55:19.553Z,0.87
2019-03-16T06:57:48.277Z,1.27
2019-03-16T07:00:18.113Z,0.47
2019-03-16T07:02:46.929Z,0.70
2019-03-16T07:05:15.739Z,0.57
2019-03-16T07:07:44.449Z,0.70
2019-03-16T07:10:14.026Z,0.50
2019-03-16T07:12:42.762Z,0.60
2019-03-16T07:15:15.428Z,2.53
2019-03-16T07:17:44.178Z,2.50
2019-03-16T07:20:14.965Z,1.53
2019-03-16T07:22:43.689Z,0.50
2019-03-16T07:25:12.455Z,0.60
2019-03-16T07:27:41.187Z,1.23
2019-03-16T07:30:12.160Z,0.53
2019-03-16T07:32:40.924Z,0.70
2019-03-16T07:35:09.733Z,0.70
2019-03-16T07:37:38.544Z,0.80
2019-03-16T07:40:12.183Z,0.40
2019-03-16T07:42:40.892Z,0.50
2019-03-16T07:45:11.517Z,0.40
2019-03-16T07:47:40.257Z,0.60
2019-03-16T07:50:13.333Z,0.40
2019-03-16T07:52:42.163Z,0.83
2019-03-16T07:55:11.162Z,0.47
2019-03-16T07:57:40.923Z,0.43
2019-03-16T08:00:11.815Z,0.40
2019-03-16T08:02:40.873Z,0.30
2019-03-16T08:05:18.061Z,0.43
2019-03-16T08:07:40.530Z,0.40
2019-03-16T08:10:10.835Z,0.30
2019-03-16T08:12:39.537Z,0.30
2019-03-16T08:15:10.324Z,0.43
2019-03-16T08:17:39.049Z,0.30
2019-03-16T08:20:09.341Z,0.50
2019-03-16T08:22:38.067Z,0.50
2019-03-16T08:25:07.922Z,1.03
2019-03-16T08:27:36.801Z,0.40
2019-03-16T08:30:13.021Z,0.40
2019-03-16T08:32:41.743Z,0.50
2019-03-16T08:35:10.589Z,0.27
2019-03-16T08:37:39.347Z,0.57
2019-03-16T08:40:10.241Z,0.50
2019-03-16T08:42:39.105Z,0.70
2019-03-16T08:45:09.269Z,0.40
2019-03-16T08:47:38.001Z,0.70
2019-03-16T08:50:08.325Z,0.60
2019-03-16T08:52:37.064Z,0.50
2019-03-16T08:55:07.584Z,0.20
2019-03-16T08:57:36.309Z,0.60
2019-03-16T09:00:10.387Z,0.47
2019-03-16T09:02:39.209Z,0.50
2019-03-16T09:05:08.536Z,0.70
2019-03-16T09:07:37.305Z,0.77
2019-03-16T09:10:08.301Z,0.30
2019-03-16T09:12:37.030Z,0.40
2019-03-16T09:15:08.730Z,0.60
2019-03-16T09:17:37.457Z,0.60
2019-03-16T09:20:07.985Z,0.50
2019-03-16T09:22:36.746Z,0.50
2019-03-16T09:25:08.226Z,0.70
2019-03-16T09:27:36.946Z,0.30
2019-03-16T09:30:26.499Z,0.90
2019-03-16T09:32:55.212Z,0.50
2019-03-16T09:35:23.927Z,0.63
2019-03-16T09:37:52.680Z,0.40
2019-03-16T09:40:21.412Z,0.80
2019-03-16T09:42:50.214Z,0.60
2019-03-16T09:45:18.961Z,0.90
2019-03-16T09:47:47.678Z,0.57
2019-03-16T09:50:16.407Z,0.60
2019-03-16T09:52:45.189Z,0.60
2019-03-16T09:55:14.104Z,0.50
2019-03-16T09:57:42.828Z,0.47
2019-03-16T10:00:15.895Z,0.50
2019-03-16T10:02:44.615Z,0.60
2019-03-16T10:05:13.435Z,0.63
2019-03-16T10:07:42.257Z,0.40
2019-03-16T10:10:15.151Z,0.40
2019-03-16T10:12:43.880Z,0.50
2019-03-16T10:15:14.440Z,0.30
2019-03-16T10:17:43.166Z,0.53
2019-03-16T10:20:15.452Z,0.60
2019-03-16T10:22:44.268Z,0.23
2019-03-16T10:25:13.287Z,0.40
2019-03-16T10:27:42.006Z,1.00
2019-03-16T10:30:16.570Z,0.53
2019-03-16T10:32:45.294Z,0.30
2019-03-16T10:35:14.018Z,0.27
2019-03-16T10:37:42.773Z,0.30
2019-03-16T10:40:12.700Z,0.37
2019-03-16T10:42:41.418Z,0.80
2019-03-16T10:45:13.218Z,0.50
2019-03-16T10:47:41.959Z,0.40
2019-03-16T10:50:12.654Z,0.60
2019-03-16T10:52:41.403Z,0.53
2019-03-16T10:55:10.125Z,1.23
2019-03-16T10:57:38.853Z,0.93
2019-03-16T11:00:11.002Z,0.50
2019-03-16T11:02:39.729Z,0.57
2019-03-16T11:05:08.454Z,0.30
2019-03-16T11:07:37.202Z,0.20
2019-03-16T11:10:08.834Z,0.37
2019-03-16T11:12:37.557Z,0.30
2019-03-16T11:15:09.294Z,0.80
2019-03-16T11:17:38.013Z,0.37
2019-03-16T11:20:09.436Z,0.50
2019-03-16T11:22:38.167Z,0.30
2019-03-16T11:25:07.995Z,0.80
2019-03-16T11:27:36.746Z,0.30
2019-03-16T11:30:14.166Z,0.27
2019-03-16T11:32:42.904Z,0.30
2019-03-16T11:35:12.062Z,0.20
2019-03-16T11:37:40.777Z,0.20
2019-03-16T11:40:15.202Z,0.20
2019-03-16T11:42:44.049Z,0.10
2019-03-16T11:45:12.871Z,0.13
2019-03-16T11:47:41.629Z,0.23
2019-03-16T11:50:11.417Z,0.37
2019-03-16T11:52:40.137Z,0.40
2019-03-16T11:55:10.089Z,0.20
2019-03-16T11:57:38.806Z,0.13
2019-03-16T12:00:12.194Z,0.10
2019-03-16T12:02:41.041Z,0.10
2019-03-16T12:05:11.154Z,0.07
2019-03-16T12:07:39.905Z,0.00
2019-03-16T12:10:10.834Z,0.10
2019-03-16T12:12:39.901Z,0.10
2019-03-16T12:15:10.126Z,0.20
2019-03-16T12:17:38.879Z,0.40
2019-03-16T12:20:17.899Z,0.10
2019-03-16T12:22:45.498Z,0.17
2019-03-16T12:25:14.289Z,0.13
2019-03-16T12:27:43.013Z,0.20
2019-03-16T12:30:13.625Z,0.10
2019-03-16T12:32:42.496Z,0.10
2019-03-16T12:35:11.290Z,0.20
2019-03-16T12:37:40.018Z,0.10
2019-03-16T12:40:13.554Z,0.47
2019-03-16T12:42:42.287Z,0.10
2019-03-16T12:45:15.959Z,0.30
2019-03-16T12:47:44.712Z,0.67
2019-03-16T12:50:13.831Z,0.10
2019-03-16T12:52:42.549Z,0.17
2019-03-16T12:55:12.211Z,0.10
2019-03-16T12:57:41.051Z,0.00
2019-03-16T13:00:18.579Z,0.10
2019-03-16T13:02:47.327Z,0.00
2019-03-16T13:05:16.029Z,0.10
2019-03-16T13:07:44.768Z,0.30
2019-03-16T13:10:18.386Z,0.23
2019-03-16T13:12:47.116Z,0.77
2019-03-16T13:15:16.163Z,0.20
2019-03-16T13:17:44.873Z,0.20
2019-03-16T13:20:14.895Z,0.00
2019-03-16T13:22:43.647Z,0.40
2019-03-16T13:25:12.475Z,0.20
2019-03-16T13:27:41.196Z,0.10
2019-03-16T13:30:12.556Z,0.20
2019-03-16T13:32:41.270Z,0.10
2019-03-16T13:35:10.396Z,0.30
2019-03-16T13:37:39.355Z,0.50
2019-03-16T13:40:13.625Z,0.80
2019-03-16T13:42:42.382Z,0.73
2019-03-16T13:45:11.391Z,0.30
2019-03-16T13:47:40.098Z,0.43
2019-03-16T13:50:14.349Z,0.93
2019-03-16T13:52:43.469Z,0.90
2019-03-16T13:55:12.201Z,0.87
2019-03-16T13:57:41.001Z,2.00
2019-03-16T14:00:15.194Z,0.30
2019-03-16T14:02:43.913Z,0.73
2019-03-16T14:05:12.668Z,0.63
2019-03-16T14:07:41.862Z,0.63
2019-03-16T14:10:13.786Z,0.50
2019-03-16T14:12:42.570Z,0.70
2019-03-16T14:15:11.289Z,1.40
2019-03-16T14:17:40.370Z,0.23
2019-03-16T14:20:12.222Z,6.80
2019-03-16T14:22:41.018Z,12.10
2019-03-16T14:25:10.341Z,5.33
2019-03-16T14:27:39.101Z,1.93
2019-03-16T14:30:25.626Z,2.10
2019-03-16T14:32:43.845Z,1.93
2019-03-16T14:35:12.571Z,3.37
2019-03-16T14:37:41.294Z,1.63
2019-03-16T14:40:14.076Z,0.90
2019-03-16T14:42:42.826Z,1.60
2019-03-16T14:45:13.894Z,1.87
2019-03-16T14:47:42.637Z,2.07
2019-03-16T14:50:19.405Z,2.43
2019-03-16T14:52:48.179Z,3.93
2019-03-16T14:55:16.906Z,7.33
2019-03-16T14:57:45.629Z,7.10
2019-03-16T15:00:18.514Z,11.80
2019-03-16T15:02:47.239Z,3.00
2019-03-16T15:05:16.009Z,2.60
2019-03-16T15:07:44.822Z,1.87
2019-03-16T15:10:15.610Z,0.67
2019-03-16T15:12:44.351Z,0.20
2019-03-16T15:15:16.955Z,0.30
2019-03-16T15:17:45.693Z,0.40
2019-03-16T15:20:14.525Z,0.80
2019-03-16T15:22:43.257Z,0.50
2019-03-16T15:25:12.964Z,1.63
2019-03-16T15:27:41.718Z,0.60
2019-03-16T15:30:20.933Z,0.63
2019-03-16T15:32:49.697Z,1.00
2019-03-16T15:35:18.422Z,0.30
2019-03-16T15:37:47.143Z,0.30
2019-03-16T15:40:16.393Z,0.50
2019-03-16T15:42:45.136Z,0.80
2019-03-16T15:45:21.937Z,0.43
2019-03-16T15:47:50.696Z,0.40
2019-03-16T15:50:19.419Z,0.30
2019-03-16T15:52:48.206Z,0.90
2019-03-16T15:55:16.915Z,1.50
2019-03-16T15:57:45.644Z,1.03
2019-03-16T16:00:18.629Z,1.73
2019-03-16T16:02:47.345Z,0.90
2019-03-16T16:05:16.101Z,0.40
2019-03-16T16:07:44.927Z,0.90
2019-03-16T16:10:17.933Z,0.63
2019-03-16T16:12:46.641Z,1.17
2019-03-16T16:15:16.276Z,0.43
2019-03-16T16:17:44.990Z,0.40
2019-03-16T16:20:19.798Z,0.80
2019-03-16T16:22:48.655Z,3.27
2019-03-16T16:25:17.374Z,1.80
2019-03-16T16:27:46.102Z,1.10
2019-03-16T16:30:19.165Z,0.50
2019-03-16T16:32:48.142Z,3.60
2019-03-16T16:35:16.941Z,4.17
2019-03-16T16:37:46.071Z,7.77
2019-03-16T16:40:18.937Z,12.60
2019-03-16T16:42:48.133Z,10.73
2019-03-16T16:45:17.901Z,12.37
2019-03-16T16:47:46.628Z,5.70
2019-03-16T16:50:17.642Z,1.80
2019-03-16T16:52:46.457Z,1.60
2019-03-16T16:55:15.245Z,1.63
2019-03-16T16:57:43.977Z,1.23
2019-03-16T17:00:20.718Z,2.03
2019-03-16T17:02:49.435Z,1.50
2019-03-16T17:05:18.249Z,1.50
2019-03-16T17:07:47.102Z,0.90
2019-03-16T17:10:16.442Z,1.20
2019-03-16T17:12:45.345Z,1.17
2019-03-16T17:15:22.374Z,1.03
2019-03-16T17:17:51.214Z,1.50
2019-03-16T17:20:19.939Z,1.77
2019-03-16T17:22:49.774Z,3.00
2019-03-16T17:25:18.487Z,1.83
2019-03-16T17:27:48.550Z,2.10
2019-03-16T17:30:23.009Z,2.57
2019-03-16T17:32:51.833Z,3.77
2019-03-16T17:35:20.625Z,3.30
2019-03-16T17:37:49.344Z,3.10
2019-03-16T17:40:18.162Z,2.13
2019-03-16T17:42:46.886Z,1.40
2019-03-16T17:45:15.606Z,1.17
2019-03-16T17:47:44.358Z,1.47
2019-03-16T17:50:14.147Z,1.90
2019-03-16T17:52:43.059Z,2.67
2019-03-16T17:55:14.197Z,2.13
2019-03-16T17:57:45.260Z,3.10
2019-03-16T18:00:17.384Z,3.67
2019-03-16T18:02:51.762Z,4.00
2019-03-16T18:05:16.513Z,2.67
2019-03-16T18:07:45.257Z,2.17
2019-03-16T18:10:14.729Z,3.60
2019-03-16T18:12:43.478Z,3.13
2019-03-16T18:15:21.766Z,2.37
2019-03-16T18:17:50.552Z,2.13
2019-03-16T18:20:19.678Z,3.10
2019-03-16T18:22:48.662Z,3.83
2019-03-16T18:25:17.653Z,6.03
2019-03-16T18:27:46.451Z,6.00
2019-03-16T18:30:25.062Z,2.53
2019-03-16T18:32:53.810Z,2.70
2019-03-16T18:35:22.522Z,3.47
2019-03-16T18:37:51.362Z,3.63
2019-03-16T18:40:20.137Z,2.97
2019-03-16T18:42:48.866Z,2.50
2019-03-16T18:45:26.410Z,2.20
2019-03-16T18:47:55.130Z,1.50
2019-03-16T18:50:23.859Z,3.70
2019-03-16T18:52:52.609Z,1.00
2019-03-16T18:55:21.334Z,0.70
2019-03-16T18:57:50.059Z,0.50
2019-03-16T19:00:19.170Z,1.50
2019-03-16T19:02:47.893Z,3.40
2019-03-16T19:05:16.718Z,1.17
2019-03-16T19:07:45.519Z,0.90
2019-03-16T19:10:15.445Z,2.60
2019-03-16T19:12:44.538Z,1.20
2019-03-16T19:15:17.314Z,0.60
2019-03-16T19:17:58.093Z,0.60
2019-03-16T19:20:17.112Z,0.30
2019-03-16T19:22:46.098Z,0.30
2019-03-16T19:25:20.683Z,0.50
2019-03-16T19:27:49.421Z,0.50
2019-03-16T19:30:18.762Z,0.90
2019-03-16T19:32:47.511Z,3.30
2019-03-16T19:35:16.268Z,2.13
2019-03-16T19:37:45.001Z,2.83
2019-03-16T19:40:15.291Z,3.67
2019-03-16T19:42:46.495Z,1.77
2019-03-16T19:45:14.513Z,3.17
2019-03-16T19:47:43.378Z,4.90
2019-03-16T19:50:14.038Z,2.43
2019-03-16T19:52:42.778Z,1.90
2019-03-16T19:55:12.553Z,1.70
2019-03-16T19:57:41.386Z,1.20
2019-03-16T20:00:17.483Z,0.67
2019-03-16T20:02:51.142Z,0.90
2019-03-16T20:05:16.626Z,0.67
2019-03-16T20:07:45.331Z,0.50
2019-03-16T20:10:16.422Z,0.57
2019-03-16T20:12:45.145Z,1.30
2019-03-16T20:15:14.883Z,0.80
2019-03-16T20:17:43.656Z,0.80
2019-03-16T20:20:17.101Z,1.23
2019-03-16T20:22:45.833Z,0.80
2019-03-16T20:25:14.913Z,0.63
2019-03-16T20:27:43.755Z,0.87
2019-03-16T20:30:25.901Z,0.60
2019-03-16T20:33:03.065Z,0.57
2019-03-16T20:35:22.293Z,0.80
2019-03-16T20:37:51.045Z,0.90
2019-03-16T20:40:21.373Z,0.90
2019-03-16T20:42:50.205Z,2.00
2019-03-16T20:45:18.947Z,3.57
2019-03-16T20:47:48.014Z,5.20
2019-03-16T20:50:20.573Z,0.60
2019-03-16T20:52:49.512Z,0.73
2019-03-16T20:55:19.823Z,2.10
2019-03-16T20:57:48.569Z,1.97
2019-03-16T21:00:21.051Z,1.07
2019-03-16T21:02:49.973Z,1.10
2019-03-16T21:05:18.947Z,0.60
2019-03-16T21:07:47.782Z,0.50
2019-03-16T21:10:16.719Z,0.77
2019-03-16T21:12:45.575Z,0.30
2019-03-16T21:15:15.916Z,0.20
2019-03-16T21:17:44.668Z,1.53
2019-03-16T21:20:15.666Z,0.90
2019-03-16T21:22:44.806Z,1.10
2019-03-16T21:25:14.627Z,0.80
2019-03-16T21:27:43.346Z,0.20
2019-03-16T21:30:22.219Z,0.20
2019-03-16T21:32:51.042Z,0.20
2019-03-16T21:35:19.844Z,0.20
2019-03-16T21:37:48.594Z,0.40
2019-03-16T21:40:18.723Z,0.30
2019-03-16T21:42:47.385Z,0.20
2019-03-16T21:45:16.138Z,0.30
2019-03-16T21:47:45.305Z,0.33
2019-03-16T21:50:17.251Z,0.17
2019-03-16T21:52:46.042Z,0.10
2019-03-16T21:55:15.433Z,0.20
2019-03-16T21:57:44.323Z,0.30
2019-03-16T22:00:17.328Z,0.30
2019-03-16T22:02:46.016Z,0.10
2019-03-16T22:05:14.904Z,0.20
2019-03-16T22:07:43.653Z,0.23
2019-03-16T22:10:16.201Z,0.50
2019-03-16T22:12:44.954Z,0.20
2019-03-16T22:15:14.792Z,0.20
2019-03-16T22:17:43.531Z,0.10
2019-03-16T22:20:18.057Z,0.20
2019-03-16T22:22:46.777Z,0.13
2019-03-16T22:25:15.593Z,0.20
2019-03-16T22:27:44.463Z,0.10
2019-03-16T22:30:17.643Z,0.10
2019-03-16T22:32:46.356Z,0.30
2019-03-16T22:35:15.132Z,0.20
2019-03-16T22:37:43.850Z,0.20
2019-03-16T22:40:13.673Z,0.30
2019-03-16T22:42:42.597Z,0.10
2019-03-16T22:45:12.817Z,0.20
2019-03-16T22:47:41.600Z,0.20
2019-03-16T22:50:15.095Z,0.20
2019-03-16T22:52:43.824Z,0.33
2019-03-16T22:55:15.490Z,0.40
2019-03-16T22:57:43.158Z,0.47
2019-03-16T23:00:14.380Z,0.30
2019-03-16T23:02:43.108Z,0.30
2019-03-16T23:05:12.331Z,0.30
2019-03-16T23:07:41.048Z,0.20
2019-03-16T23:10:13.206Z,0.20
2019-03-16T23:12:42.029Z,0.20
2019-03-16T23:15:11.695Z,0.20
2019-03-16T23:17:41.692Z,0.17
2019-03-16T23:20:11.010Z,0.10
2019-03-16T23:22:39.800Z,0.10
2019-03-16T23:25:10.024Z,0.30
2019-03-16T23:27:40.761Z,0.10
2019-03-16T23:30:10.977Z,0.20
2019-03-16T23:32:39.769Z,0.20
2019-03-16T23:35:09.217Z,0.20
2019-03-16T23:37:37.941Z,0.20
2019-03-16T23:40:08.467Z,0.10
2019-03-16T23:42:37.243Z,0.17
2019-03-16T23:45:08.501Z,0.20
2019-03-16T23:47:37.371Z,0.10
2019-03-16T23:50:08.617Z,0.20
2019-03-16T23:52:37.370Z,0.20
2019-03-16T23:55:09.844Z,0.30
2019-03-16T23:57:38.839Z,0.10
